createdAt,value
2022-09-01T00:00:49.043Z,97.40
2022-09-01T00:03:18.426Z,97.40
2022-09-01T00:05:50.972Z,97.40
2022-09-01T00:08:19.402Z,97.40
2022-09-01T00:10:47.652Z,97.40
2022-09-01T00:13:17.954Z,97.40
2022-09-01T00:15:46.240Z,97.40
2022-09-01T00:18:15.662Z,97.40
2022-09-01T00:20:43.997Z,97.40
2022-09-01T00:23:12.274Z,97.40
2022-09-01T00:25:40.649Z,97.40
2022-09-01T00:28:09.197Z,97.40
2022-09-01T00:30:38.840Z,97.40
2022-09-01T00:33:08.051Z,97.40
2022-09-01T00:35:37.317Z,97.40
2022-09-01T00:38:05.962Z,97.40
2022-09-01T00:40:34.326Z,97.40
2022-09-01T00:43:02.827Z,97.40
2022-09-01T00:45:31.151Z,97.40
2022-09-01T00:48:00.818Z,97.40
2022-09-01T00:50:28.981Z,97.40
2022-09-01T00:52:57.467Z,97.40
2022-09-01T00:55:31.060Z,97.40
2022-09-01T00:58:02.902Z,97.40
2022-09-01T01:00:34.075Z,97.40
2022-09-01T01:03:03.740Z,97.40
2022-09-01T01:05:39.318Z,97.40
2022-09-01T01:08:12.027Z,97.40
2022-09-01T01:10:43.051Z,97.40
2022-09-01T01:13:17.036Z,97.40
2022-09-01T01:15:46.013Z,97.40
2022-09-01T01:18:23.155Z,97.40
2022-09-01T01:21:21.476Z,97.40
2022-09-01T01:23:56.482Z,97.40
2022-09-01T01:26:26.751Z,97.40
2022-09-01T01:28:55.174Z,97.40
2022-09-01T01:31:24.686Z,97.40
2022-09-01T01:33:57.848Z,97.40
2022-09-01T01:36:32.362Z,97.40
2022-09-01T01:39:07.688Z,97.40
2022-09-01T01:41:45.199Z,97.40
2022-09-01T01:44:15.734Z,97.40
2022-09-01T01:46:47.753Z,97.40
2022-09-01T01:49:19.899Z,97.40
2022-09-01T01:51:55.968Z,97.40
2022-09-01T01:54:32.470Z,97.40
2022-09-01T01:57:04.359Z,97.40
2022-09-01T01:59:34.495Z,97.40
2022-09-01T02:02:08.609Z,97.40
2022-09-01T02:04:37.378Z,97.40
2022-09-01T02:07:13.599Z,97.40
2022-09-01T02:09:46.033Z,97.40
2022-09-01T02:12:19.438Z,97.40
2022-09-01T02:14:48.422Z,97.40
2022-09-01T02:17:16.762Z,97.40
2022-09-01T02:19:47.288Z,97.40
2022-09-01T02:22:15.505Z,97.40
2022-09-01T02:24:48.039Z,97.40
2022-09-01T02:27:25.816Z,97.40
2022-09-01T02:29:55.440Z,97.40
2022-09-01T02:32:24.200Z,97.40
2022-09-01T02:34:56.927Z,97.40
2022-09-01T02:37:25.425Z,97.40
2022-09-01T02:39:56.775Z,97.40
2022-09-01T02:42:27.704Z,97.40
2022-09-01T02:44:56.463Z,97.40
2022-09-01T02:47:25.493Z,97.40
2022-09-01T02:49:54.194Z,97.40
2022-09-01T02:52:22.763Z,97.40
2022-09-01T02:54:50.969Z,97.40
2022-09-01T02:57:19.331Z,97.40
2022-09-01T02:59:48.888Z,97.40
2022-09-01T03:02:17.096Z,97.40
2022-09-01T03:04:45.412Z,97.40
2022-09-01T03:07:13.769Z,97.40
2022-09-01T03:09:43.247Z,97.40
2022-09-01T03:12:11.498Z,97.40
2022-09-01T03:14:39.802Z,97.40
2022-09-01T03:17:09.540Z,97.40
2022-09-01T03:19:45.196Z,97.40
2022-09-01T03:22:13.462Z,97.40
2022-09-01T03:24:42.467Z,97.40
2022-09-01T03:27:11.706Z,97.40
2022-09-01T03:29:39.951Z,97.40
2022-09-01T03:32:10.463Z,97.40
2022-09-01T03:34:39.443Z,97.40
2022-09-01T03:37:08.090Z,97.40
2022-09-01T03:39:36.802Z,97.40
2022-09-01T03:42:08.299Z,97.40
2022-09-01T03:44:40.163Z,97.40
2022-09-01T03:47:15.174Z,97.40
2022-09-01T03:49:45.411Z,97.40
2022-09-01T03:52:13.651Z,97.40
2022-09-01T03:54:41.870Z,97.40
2022-09-01T03:57:10.125Z,97.40
2022-09-01T03:59:45.264Z,97.40
2022-09-01T04:02:15.792Z,97.40
2022-09-01T04:04:44.683Z,97.40
2022-09-01T04:07:19.195Z,97.40
2022-09-01T04:09:47.899Z,97.40
2022-09-01T04:12:17.162Z,97.40
2022-09-01T04:14:49.383Z,97.40
2022-09-01T04:17:36.606Z,97.40
2022-09-01T04:20:08.930Z,97.40
2022-09-01T04:22:38.144Z,97.40
2022-09-01T04:25:08.882Z,97.40
2022-09-01T04:27:40.488Z,97.40
2022-09-01T04:30:11.922Z,97.40
2022-09-01T04:32:46.739Z,97.40
2022-09-01T04:35:16.979Z,97.40
2022-09-01T04:37:46.163Z,97.40
2022-09-01T04:40:15.398Z,97.40
2022-09-01T04:42:45.042Z,97.40
2022-09-01T04:45:17.367Z,97.40
2022-09-01T04:47:49.903Z,97.40
2022-09-01T04:50:22.102Z,97.40
2022-09-01T04:53:12.016Z,97.40
2022-09-01T04:55:44.311Z,97.40
2022-09-01T04:58:17.398Z,97.40
2022-09-01T05:00:49.464Z,97.40
2022-09-01T05:03:23.432Z,97.40
2022-09-01T05:06:17.753Z,97.40
2022-09-01T05:08:52.133Z,97.40
2022-09-01T05:11:45.529Z,97.40
2022-09-01T05:14:42.147Z,97.40
2022-09-01T05:17:12.566Z,97.40
2022-09-01T05:19:47.598Z,97.40
2022-09-01T05:22:21.984Z,97.40
2022-09-01T05:25:13.059Z,97.40
2022-09-01T05:27:49.470Z,97.40
2022-09-01T05:30:19.654Z,97.40
2022-09-01T05:32:50.782Z,97.40
2022-09-01T05:35:24.622Z,97.40
2022-09-01T05:38:00.666Z,97.40
2022-09-01T05:40:29.047Z,97.40
2022-09-01T05:42:58.082Z,97.40
2022-09-01T05:45:26.711Z,97.40
2022-09-01T05:47:56.232Z,97.40
2022-09-01T05:50:28.193Z,97.40
2022-09-01T05:52:56.622Z,97.40
2022-09-01T05:55:27.649Z,97.40
2022-09-01T05:57:57.199Z,97.40
2022-09-01T06:00:25.471Z,97.40
2022-09-01T06:02:55.920Z,97.40
2022-09-01T06:05:26.984Z,97.40
2022-09-01T06:07:57.813Z,97.40
2022-09-01T06:10:27.057Z,97.40
2022-09-01T06:12:56.608Z,97.40
2022-09-01T06:15:29.436Z,97.40
2022-09-01T06:17:58.775Z,97.40
2022-09-01T06:20:29.913Z,97.40
2022-09-01T06:22:58.163Z,97.40
2022-09-01T06:25:30.518Z,97.40
2022-09-01T06:28:00.709Z,97.40
2022-09-01T06:30:29.933Z,97.40
2022-09-01T06:33:09.310Z,97.40
2022-09-01T06:35:40.512Z,97.40
2022-09-01T06:38:09.781Z,97.40
2022-09-01T06:40:42.683Z,97.40
2022-09-01T06:43:17.133Z,97.40
2022-09-01T06:45:54.243Z,97.40
2022-09-01T06:48:24.745Z,97.40
2022-09-01T06:53:59.472Z,97.40
2022-09-01T06:56:33.903Z,97.40
2022-09-01T06:59:10.033Z,97.40
2022-09-01T07:01:39.957Z,97.40
2022-09-01T07:04:12.903Z,97.40
2022-09-01T07:07:54.241Z,97.40
2022-09-01T07:10:17.732Z,97.40
2022-09-01T07:18:31.819Z,97.40
2022-09-01T07:21:36.374Z,97.40
2022-09-01T07:24:10.990Z,97.40
2022-09-01T07:26:47.142Z,97.40
2022-09-01T07:29:17.394Z,97.40
2022-09-01T07:31:50.344Z,97.40
2022-09-01T07:42:57.099Z,97.40
2022-09-01T07:43:22.172Z,97.40
2022-09-01T07:45:59.732Z,97.40
2022-09-01T07:49:02.473Z,97.40
2022-09-01T07:51:38.320Z,97.40
2022-09-01T07:54:08.597Z,97.40
2022-09-01T07:56:40.569Z,96.60
2022-09-01T07:59:15.059Z,95.90
2022-09-01T08:01:52.551Z,95.50
2022-09-01T08:04:22.995Z,95.50
2022-09-01T08:06:51.884Z,94.50
2022-09-01T08:09:37.237Z,94.40
2022-09-01T08:12:09.713Z,93.60
2022-09-01T08:14:41.629Z,94.00
2022-09-01T08:17:33.025Z,93.80
2022-09-01T08:20:02.078Z,93.40
2022-09-01T08:22:53.116Z,94.10
2022-09-01T08:25:26.140Z,93.10
2022-09-01T08:28:00.841Z,91.20
2022-09-01T08:30:30.074Z,90.20
2022-09-01T08:32:59.071Z,90.10
2022-09-01T08:35:29.452Z,90.90
2022-09-01T08:38:00.751Z,91.70
2022-09-01T08:40:30.367Z,91.20
2022-09-01T08:43:15.964Z,91.70
2022-09-01T08:45:50.987Z,92.00
2022-09-01T08:49:23.198Z,92.80
2022-09-01T08:51:25.355Z,92.20
2022-09-01T08:54:06.022Z,91.70
2022-09-01T08:56:37.556Z,92.60
2022-09-01T08:59:10.729Z,92.70
2022-09-01T09:02:24.827Z,93.00
2022-09-01T09:05:21.376Z,93.30
2022-09-01T09:08:15.328Z,91.90
2022-09-01T09:10:56.555Z,90.90
2022-09-01T09:13:36.189Z,91.50
2022-09-01T09:16:11.865Z,91.30
2022-09-01T09:18:56.458Z,91.50
2022-09-01T09:21:31.043Z,92.40
2022-09-01T09:24:10.127Z,93.30
2022-09-01T09:26:45.759Z,91.60
2022-09-01T09:29:14.032Z,91.90
2022-09-01T09:31:49.990Z,91.90
2022-09-01T09:34:33.203Z,91.80
2022-09-01T09:37:21.827Z,90.90
2022-09-01T09:40:10.940Z,91.20
2022-09-01T09:42:40.322Z,88.60
2022-09-01T09:45:24.741Z,89.60
2022-09-01T09:47:56.344Z,88.10
2022-09-01T09:50:29.477Z,88.10
2022-09-01T09:53:18.353Z,85.80
2022-09-01T09:56:01.045Z,82.70
2022-09-01T09:58:37.048Z,84.00
2022-09-01T10:01:11.253Z,84.90
2022-09-01T10:03:46.930Z,83.40
2022-09-01T10:06:33.007Z,81.70
2022-09-01T10:09:02.972Z,82.30
2022-09-01T10:11:41.642Z,83.00
2022-09-01T10:14:35.413Z,83.60
2022-09-01T10:17:13.324Z,83.80
2022-09-01T10:19:58.463Z,84.50
2022-09-01T10:22:27.212Z,83.60
2022-09-01T10:24:55.467Z,78.90
2022-09-01T10:27:27.030Z,78.90
2022-09-01T10:30:13.864Z,77.60
2022-09-01T10:32:55.053Z,76.70
2022-09-01T10:35:29.708Z,74.80
2022-09-01T10:38:00.716Z,75.40
2022-09-01T10:40:49.310Z,71.70
2022-09-01T10:43:37.905Z,70.50
2022-09-01T10:46:50.748Z,69.10
2022-09-01T10:50:01.470Z,70.50
2022-09-01T10:53:02.224Z,72.20
2022-09-01T10:55:46.456Z,72.80
2022-09-01T11:02:24.942Z,72.40
2022-09-01T11:05:18.762Z,70.70
2022-09-01T11:08:14.950Z,69.60
2022-09-01T11:10:54.507Z,66.40
2022-09-01T11:13:36.676Z,64.20
2022-09-01T11:19:42.014Z,65.30
2022-09-01T11:22:32.631Z,65.50
2022-09-01T11:25:40.500Z,67.20
2022-09-01T11:28:41.808Z,67.60
2022-09-01T11:31:32.799Z,68.10
2022-09-01T11:34:12.115Z,64.60
2022-09-01T11:36:54.852Z,61.80
2022-09-01T11:39:40.156Z,63.70
2022-09-01T11:42:18.900Z,64.20
2022-09-01T11:44:54.381Z,65.90
2022-09-01T11:47:27.157Z,66.60
2022-09-01T11:49:58.824Z,66.80
2022-09-01T11:52:31.280Z,68.90
2022-09-01T11:55:00.758Z,69.20
2022-09-01T11:57:33.083Z,68.70
2022-09-01T12:00:07.109Z,69.10
2022-09-01T12:02:48.295Z,69.60
2022-09-01T12:05:33.215Z,65.70
2022-09-01T12:08:04.643Z,57.40
2022-09-01T12:10:38.303Z,53.40
2022-09-01T12:13:09.983Z,54.20
2022-09-01T12:16:00.574Z,56.60
2022-09-01T12:18:35.113Z,54.30
2022-09-01T12:21:07.794Z,53.90
2022-09-01T12:23:40.214Z,54.80
2022-09-01T12:26:14.760Z,51.60
2022-09-01T12:28:43.959Z,47.00
2022-09-01T12:31:19.782Z,49.00
2022-09-01T12:33:49.310Z,46.70
2022-09-01T12:36:27.756Z,49.10
2022-09-01T12:38:58.246Z,50.20
2022-09-01T12:41:34.792Z,51.70
2022-09-01T12:44:32.856Z,55.10
2022-09-01T12:47:06.765Z,55.10
2022-09-01T12:49:48.041Z,58.40
2022-09-01T12:52:27.630Z,59.00
2022-09-01T12:55:47.308Z,57.40
2022-09-01T12:58:06.524Z,56.40
2022-09-01T13:00:37.748Z,59.30
2022-09-01T13:03:17.868Z,54.90
2022-09-01T13:05:53.531Z,57.20
2022-09-01T13:08:26.910Z,56.40
2022-09-01T13:10:59.073Z,54.90
2022-09-01T13:13:28.780Z,54.80
2022-09-01T13:16:01.795Z,53.40
2022-09-01T13:18:31.753Z,48.80
2022-09-01T13:21:00.440Z,46.20
2022-09-01T13:23:28.789Z,45.90
2022-09-01T13:25:58.398Z,47.20
2022-09-01T13:28:27.930Z,47.90
2022-09-01T13:36:48.504Z,51.90
2022-09-01T13:39:19.170Z,52.90
2022-09-01T13:41:49.273Z,52.30
2022-09-01T13:44:18.695Z,52.00
2022-09-01T13:50:06.004Z,52.60
2022-09-01T13:52:26.026Z,52.00
2022-09-01T13:54:54.317Z,51.40
2022-09-01T13:57:22.502Z,50.70
2022-09-01T13:59:50.748Z,48.80
2022-09-01T14:02:19.042Z,47.00
2022-09-01T14:04:48.765Z,47.90
2022-09-01T14:07:18.830Z,48.80
2022-09-01T14:09:47.442Z,49.70
2022-09-01T14:12:15.727Z,49.40
2022-09-01T14:17:32.235Z,46.80
2022-09-01T14:20:02.061Z,47.00
2022-09-01T14:22:32.356Z,45.80
2022-09-01T14:25:03.454Z,47.00
2022-09-01T14:27:31.764Z,49.30
2022-09-01T14:30:00.937Z,48.50
2022-09-01T14:32:29.481Z,48.70
2022-09-01T14:34:59.160Z,47.50
2022-09-01T14:37:28.992Z,46.70
2022-09-01T14:39:59.337Z,47.50
2022-09-01T14:42:28.697Z,46.20
2022-09-01T14:44:57.409Z,47.20
2022-09-01T14:47:25.987Z,46.10
2022-09-01T14:49:55.063Z,46.70
2022-09-01T14:52:23.293Z,49.90
2022-09-01T14:54:52.971Z,50.50
2022-09-01T14:57:30.976Z,52.20
2022-09-01T15:00:11.920Z,52.90
2022-09-01T15:02:42.337Z,52.30
2022-09-01T15:05:12.143Z,54.00
2022-09-01T15:07:41.163Z,54.90
2022-09-01T15:10:15.905Z,54.90
2022-09-01T15:12:54.735Z,56.30
2022-09-01T15:15:23.917Z,56.70
2022-09-01T15:17:52.230Z,56.60
2022-09-01T15:20:38.307Z,58.00
2022-09-01T15:23:07.243Z,57.80
2022-09-01T15:25:36.835Z,58.60
2022-09-01T15:28:06.029Z,59.30
2022-09-01T15:30:35.950Z,59.90
2022-09-01T15:33:05.003Z,61.80
2022-09-01T15:35:34.530Z,62.70
2022-09-01T15:38:02.843Z,64.00
2022-09-01T15:40:31.451Z,65.30
2022-09-01T15:43:01.138Z,65.70
2022-09-01T15:45:30.169Z,65.30
2022-09-01T15:47:58.479Z,64.80
2022-09-01T15:50:28.484Z,63.80
2022-09-01T15:52:59.759Z,66.10
2022-09-01T15:55:30.368Z,66.80
2022-09-01T15:58:00.494Z,66.80
2022-09-01T16:00:30.169Z,68.30
2022-09-01T16:03:01.751Z,69.10
2022-09-01T16:05:31.238Z,68.90
2022-09-01T16:08:01.309Z,67.90
2022-09-01T16:10:33.695Z,67.00
2022-09-01T16:13:06.139Z,65.90
2022-09-01T16:15:35.111Z,66.80
2022-09-01T16:18:20.914Z,65.10
2022-09-01T16:20:59.157Z,65.90
2022-09-01T16:23:38.172Z,65.50
2022-09-01T16:26:07.900Z,66.30
2022-09-01T16:28:39.080Z,66.30
2022-09-01T16:31:14.035Z,65.70
2022-09-01T16:33:55.397Z,67.20
2022-09-01T16:37:04.116Z,66.60
2022-09-01T16:40:09.319Z,67.40
2022-09-01T16:42:57.920Z,67.70
2022-09-01T16:45:43.016Z,68.70
2022-09-01T16:48:23.224Z,68.50
2022-09-01T16:51:00.377Z,68.30
2022-09-01T16:53:50.064Z,70.00
2022-09-01T16:56:28.405Z,70.90
2022-09-01T16:59:12.808Z,72.20
2022-09-01T17:01:55.886Z,71.80
2022-09-01T17:04:34.810Z,72.40
2022-09-01T17:07:24.142Z,71.30
2022-09-01T17:10:01.973Z,71.10
2022-09-01T17:12:40.256Z,72.80
2022-09-01T17:15:12.807Z,72.40
2022-09-01T17:17:47.709Z,72.80
2022-09-01T17:20:16.666Z,72.00
2022-09-01T17:22:51.828Z,72.60
2022-09-01T17:25:35.854Z,73.50
2022-09-01T17:28:09.561Z,73.50
2022-09-01T17:30:45.695Z,74.80
2022-09-01T17:33:24.005Z,73.90
2022-09-01T17:36:10.645Z,74.60
2022-09-01T17:38:54.130Z,76.50
2022-09-01T17:41:37.392Z,76.70
2022-09-01T17:44:19.106Z,78.00
2022-09-01T17:46:58.891Z,78.90
2022-09-01T17:49:40.011Z,78.40
2022-09-01T17:52:16.096Z,78.40
2022-09-01T17:54:54.825Z,78.00
2022-09-01T17:57:33.695Z,78.60
2022-09-01T18:00:07.950Z,78.70
2022-09-01T18:03:06.103Z,79.10
2022-09-01T18:05:43.049Z,79.10
2022-09-01T18:08:33.600Z,79.50
2022-09-01T18:11:11.091Z,79.10
2022-09-01T18:13:53.382Z,78.70
2022-09-01T18:16:28.001Z,78.60
2022-09-01T18:19:02.141Z,79.10
2022-09-01T18:21:37.336Z,79.10
2022-09-01T18:24:22.322Z,79.90
2022-09-01T18:26:54.077Z,79.90
2022-09-01T18:29:28.377Z,79.90
2022-09-01T18:32:27.501Z,80.80
2022-09-01T18:35:23.911Z,81.40
2022-09-01T18:38:14.773Z,81.90
2022-09-01T18:41:00.258Z,83.20
2022-09-01T18:43:36.590Z,83.80
2022-09-01T18:46:17.099Z,84.30
2022-09-01T18:49:00.909Z,85.10
2022-09-01T18:51:47.674Z,86.20
2022-09-01T18:54:23.421Z,86.80
2022-09-01T18:56:56.922Z,88.10
2022-09-01T18:59:50.458Z,88.60
2022-09-01T19:02:51.890Z,88.60
2022-09-01T19:05:34.292Z,89.60
2022-09-01T19:08:11.702Z,90.80
2022-09-01T19:10:46.663Z,90.90
2022-09-01T19:13:33.795Z,89.70
2022-09-01T19:16:13.856Z,89.60
2022-09-01T19:18:47.129Z,89.20
2022-09-01T19:21:24.146Z,89.90
2022-09-01T19:24:04.672Z,90.20
2022-09-01T19:26:41.942Z,90.80
2022-09-01T19:29:17.506Z,90.80
2022-09-01T19:31:50.458Z,91.00
2022-09-01T19:34:25.812Z,91.10
2022-09-01T19:36:57.118Z,91.20
2022-09-01T19:39:28.615Z,91.20
2022-09-01T19:42:05.219Z,91.20
2022-09-01T19:44:44.499Z,91.60
2022-09-01T19:47:19.908Z,92.10
2022-09-01T19:49:55.910Z,92.50
2022-09-01T19:52:33.064Z,92.00
2022-09-01T19:55:08.138Z,96.40
2022-09-01T19:57:44.997Z,94.00
2022-09-01T20:00:19.382Z,93.00
2022-09-01T20:02:53.314Z,93.10
2022-09-01T20:05:31.718Z,92.90
2022-09-01T20:08:06.973Z,93.10
2022-09-01T20:10:56.496Z,93.40
2022-09-01T20:13:40.166Z,93.60
2022-09-01T20:16:25.124Z,93.70
2022-09-01T20:19:01.306Z,94.10
2022-09-01T20:21:29.641Z,94.20
2022-09-01T20:24:05.635Z,94.50
2022-09-01T20:26:40.790Z,94.60
2022-09-01T20:29:19.187Z,95.10
2022-09-01T20:31:53.873Z,95.10
2022-09-01T20:34:30.073Z,95.60
2022-09-01T20:37:18.137Z,96.30
2022-09-01T20:40:02.562Z,96.50
2022-09-01T20:42:42.745Z,96.70
2022-09-01T20:45:17.446Z,97.40
2022-09-01T20:47:51.369Z,97.40
2022-09-01T20:50:22.028Z,97.20
2022-09-01T20:53:08.363Z,97.40
2022-09-01T20:55:43.185Z,97.40
2022-09-01T20:58:21.791Z,97.40
2022-09-01T21:01:03.168Z,97.40
2022-09-01T21:03:45.397Z,97.40
2022-09-01T21:06:23.139Z,97.40
2022-09-01T21:09:03.039Z,97.40
2022-09-01T21:11:45.322Z,97.40
2022-09-01T21:14:31.362Z,97.40
2022-09-01T21:17:10.828Z,97.40
2022-09-01T21:19:52.045Z,97.40
2022-09-01T21:22:22.379Z,97.40
2022-09-01T21:24:50.995Z,97.40
2022-09-01T21:27:26.641Z,97.40
2022-09-01T21:30:00.742Z,97.40
2022-09-01T21:32:31.763Z,97.40
2022-09-01T21:35:00.944Z,97.40
2022-09-01T21:37:32.128Z,97.40
2022-09-01T21:40:00.548Z,97.40
2022-09-01T21:42:31.981Z,97.40
2022-09-01T21:45:03.693Z,97.40
2022-09-01T21:47:34.663Z,97.40
2022-09-01T21:50:03.428Z,97.40
2022-09-01T21:52:31.837Z,97.40
2022-09-01T21:55:00.153Z,97.40
2022-09-01T21:57:28.643Z,97.40
2022-09-01T21:59:57.157Z,97.40
2022-09-01T22:02:28.656Z,97.40
2022-09-01T22:04:58.482Z,97.40
2022-09-01T22:07:26.856Z,97.40
2022-09-01T22:09:57.651Z,97.40
2022-09-01T22:12:26.038Z,97.40
2022-09-01T22:14:54.362Z,97.40
2022-09-01T22:17:22.824Z,97.40
2022-09-01T22:19:52.922Z,97.40
2022-09-01T22:22:22.589Z,97.40
2022-09-01T22:24:51.258Z,97.40
2022-09-01T22:27:19.527Z,97.40
2022-09-01T22:29:48.198Z,97.40
2022-09-01T22:32:16.459Z,97.40
2022-09-01T22:34:44.853Z,97.40
2022-09-01T22:37:13.158Z,97.40
2022-09-01T22:39:42.928Z,97.40
2022-09-01T22:42:11.261Z,97.40
2022-09-01T22:44:39.703Z,97.40
2022-09-01T22:47:08.151Z,97.40
2022-09-01T22:49:36.937Z,97.40
2022-09-01T22:52:05.399Z,97.40
2022-09-01T22:54:33.883Z,97.40
2022-09-01T22:57:04.067Z,97.40
2022-09-01T22:59:32.777Z,97.40
2022-09-01T23:02:01.899Z,97.40
2022-09-01T23:04:32.095Z,97.40
2022-09-01T23:07:00.775Z,97.40
2022-09-01T23:09:29.200Z,97.40
2022-09-01T23:11:57.637Z,97.40
2022-09-01T23:14:28.344Z,97.40
2022-09-01T23:16:56.903Z,97.40
2022-09-01T23:19:26.317Z,97.40
2022-09-01T23:21:54.670Z,97.40
2022-09-01T23:24:23.199Z,97.40
2022-09-01T23:26:51.580Z,97.40
2022-09-01T23:29:25.249Z,97.40
2022-09-01T23:31:55.024Z,97.40
2022-09-01T23:34:23.438Z,97.40
2022-09-01T23:36:51.687Z,97.40
2022-09-01T23:39:19.876Z,97.40
2022-09-01T23:41:48.256Z,97.40
2022-09-01T23:44:16.743Z,97.40
2022-09-01T23:46:47.315Z,97.40
2022-09-01T23:49:19.414Z,97.40
2022-09-01T23:51:49.855Z,97.40
2022-09-01T23:54:18.063Z,97.40
2022-09-01T23:56:46.667Z,97.40
2022-09-01T23:59:15.565Z,97.40
